createdAt,value
2022-12-26T00:02:23.350Z,89.14
2022-12-26T00:04:56.070Z,89.39
2022-12-26T00:07:28.775Z,89.54
2022-12-26T00:10:01.351Z,89.41
2022-12-26T00:12:34.080Z,89.32
2022-12-26T00:15:07.315Z,89.35
2022-12-26T00:17:39.865Z,89.89
2022-12-26T00:20:12.356Z,89.31
2022-12-26T00:22:44.832Z,89.33
2022-12-26T00:25:17.329Z,89.50
2022-12-26T00:27:49.873Z,88.72
2022-12-26T00:30:22.427Z,89.60
2022-12-26T00:32:55.630Z,89.22
2022-12-26T00:35:28.222Z,89.05
2022-12-26T00:38:00.744Z,88.68
2022-12-26T00:40:33.256Z,89.75
2022-12-26T00:43:05.783Z,89.17
2022-12-26T00:45:38.303Z,88.89
2022-12-26T00:48:10.849Z,89.38
2022-12-26T00:50:43.460Z,89.47
2022-12-26T00:53:16.162Z,89.44
2022-12-26T00:55:49.393Z,89.35
2022-12-26T00:58:23.225Z,89.32
2022-12-26T01:01:04.844Z,89.53
2022-12-26T01:03:37.655Z,89.53
2022-12-26T01:06:10.840Z,89.71
2022-12-26T01:08:43.562Z,89.07
2022-12-26T01:11:37.412Z,88.62
2022-12-26T01:14:15.033Z,89.16
2022-12-26T01:16:47.653Z,89.25
2022-12-26T01:19:20.297Z,88.97
2022-12-26T01:21:52.910Z,89.30
2022-12-26T01:24:25.415Z,88.56
2022-12-26T01:26:57.914Z,88.48
2022-12-26T01:29:30.438Z,88.63
2022-12-26T01:32:03.415Z,88.50
2022-12-26T01:34:36.040Z,88.53
2022-12-26T01:37:12.047Z,88.56
2022-12-26T01:39:44.484Z,88.57
2022-12-26T01:42:21.463Z,88.43
2022-12-26T01:45:29.341Z,88.74
2022-12-26T01:48:06.431Z,88.06
2022-12-26T01:50:56.101Z,88.68
2022-12-26T01:53:53.201Z,88.86
2022-12-26T01:56:35.779Z,88.92
2022-12-26T01:59:17.967Z,88.96
2022-12-26T02:01:54.493Z,89.67
2022-12-26T02:04:54.974Z,89.98
2022-12-26T02:07:28.115Z,89.57
2022-12-26T02:10:00.951Z,89.08
2022-12-26T02:12:38.801Z,90.24
2022-12-26T02:15:17.370Z,90.01
2022-12-26T02:17:50.026Z,89.96
2022-12-26T02:20:43.652Z,89.73
2022-12-26T02:24:04.174Z,89.43
2022-12-26T02:27:04.611Z,89.26
2022-12-26T02:30:07.916Z,88.66
2022-12-26T02:33:28.154Z,88.44
2022-12-26T02:36:44.477Z,89.05
2022-12-26T02:39:43.252Z,88.44
2022-12-26T02:42:51.479Z,88.59
2022-12-26T02:45:45.295Z,88.61
2022-12-26T02:48:35.638Z,88.62
2022-12-26T02:51:43.684Z,88.53
2022-12-26T02:55:07.005Z,89.04
2022-12-26T02:58:18.193Z,89.20
2022-12-26T03:01:21.153Z,88.62
2022-12-26T03:04:19.147Z,88.99
2022-12-26T03:07:17.033Z,88.92
2022-12-26T03:10:11.344Z,89.11
2022-12-26T03:13:11.902Z,89.01
2022-12-26T03:16:28.260Z,89.55
2022-12-26T03:19:08.151Z,89.35
2022-12-26T03:21:45.774Z,89.51
2022-12-26T03:24:18.763Z,89.40
2022-12-26T03:26:54.880Z,89.21
2022-12-26T03:29:45.751Z,89.12
2022-12-26T03:32:18.248Z,89.05
2022-12-26T03:34:50.900Z,88.52
2022-12-26T03:37:50.214Z,88.50
2022-12-26T03:41:11.761Z,88.15
2022-12-26T03:44:12.255Z,88.76
2022-12-26T03:47:35.676Z,88.72
2022-12-26T03:50:51.371Z,89.08
2022-12-26T03:53:54.291Z,89.54
2022-12-26T03:57:05.398Z,89.06
2022-12-26T04:00:23.925Z,88.60
2022-12-26T04:03:24.855Z,88.78
2022-12-26T04:06:22.785Z,89.02
2022-12-26T04:09:21.319Z,88.49
2022-12-26T04:12:16.213Z,88.47
2022-12-26T04:15:18.687Z,88.52
2022-12-26T04:18:32.445Z,88.54
2022-12-26T04:21:45.860Z,88.66
2022-12-26T04:24:49.146Z,89.12
2022-12-26T04:27:47.016Z,88.77
2022-12-26T04:30:38.270Z,88.82
2022-12-26T04:33:41.359Z,88.52
2022-12-26T04:36:56.037Z,88.47
2022-12-26T04:39:53.479Z,89.14
2022-12-26T04:42:47.063Z,88.56
2022-12-26T04:45:22.400Z,88.26
2022-12-26T04:48:13.813Z,88.28
2022-12-26T04:50:52.939Z,88.22
2022-12-26T04:53:25.521Z,88.68
2022-12-26T04:55:58.029Z,89.23
2022-12-26T04:58:30.576Z,88.21
2022-12-26T05:01:26.162Z,88.50
2022-12-26T05:04:17.518Z,88.80
2022-12-26T05:07:09.315Z,88.63
2022-12-26T05:09:41.892Z,89.09
2022-12-26T05:12:14.433Z,89.10
2022-12-26T05:14:46.933Z,88.18
2022-12-26T05:17:38.194Z,88.66
2022-12-26T05:20:31.784Z,88.44
2022-12-26T05:23:23.881Z,88.70
2022-12-26T05:26:15.076Z,88.12
2022-12-26T05:28:57.991Z,88.87
2022-12-26T05:31:35.530Z,88.58
2022-12-26T05:34:15.806Z,88.03
2022-12-26T05:36:53.797Z,88.45
2022-12-26T05:39:26.394Z,88.97
2022-12-26T05:41:58.941Z,88.63
2022-12-26T05:44:31.502Z,88.49
2022-12-26T05:47:04.078Z,88.51
2022-12-26T05:49:36.716Z,88.61
2022-12-26T05:52:09.388Z,88.52
2022-12-26T05:54:41.931Z,88.80
2022-12-26T05:57:14.511Z,89.22
2022-12-26T05:59:47.087Z,88.94
2022-12-26T06:02:19.894Z,88.93
2022-12-26T06:04:52.460Z,88.85
2022-12-26T06:07:24.980Z,88.62
2022-12-26T06:09:57.551Z,88.26
2022-12-26T06:12:30.267Z,88.87
2022-12-26T06:15:03.393Z,88.54
2022-12-26T06:17:36.167Z,88.35
2022-12-26T06:20:09.104Z,88.05
2022-12-26T06:22:41.654Z,88.18
2022-12-26T06:25:14.220Z,87.64
2022-12-26T06:27:46.849Z,87.56
2022-12-26T06:30:19.386Z,87.17
2022-12-26T06:32:51.892Z,87.49
2022-12-26T06:35:24.538Z,87.15
2022-12-26T06:37:57.033Z,86.74
2022-12-26T06:40:29.609Z,86.94
2022-12-26T06:43:02.094Z,86.93
2022-12-26T06:45:35.280Z,87.60
2022-12-26T06:48:07.815Z,87.18
2022-12-26T06:50:40.385Z,87.76
2022-12-26T06:53:12.952Z,87.42
2022-12-26T06:55:45.415Z,87.20
2022-12-26T06:58:18.517Z,86.80
2022-12-26T07:00:51.095Z,87.05
2022-12-26T07:03:25.858Z,87.39
2022-12-26T07:06:12.551Z,87.62
2022-12-26T07:08:45.112Z,87.41
2022-12-26T07:11:23.011Z,87.69
2022-12-26T07:13:56.601Z,86.58
2022-12-26T07:16:29.264Z,88.07
2022-12-26T07:19:02.885Z,87.44
2022-12-26T07:21:40.474Z,87.39
2022-12-26T07:24:20.249Z,87.14
2022-12-26T07:26:52.847Z,87.23
2022-12-26T07:29:25.664Z,87.53
2022-12-26T07:31:59.047Z,87.55
2022-12-26T07:34:32.252Z,87.11
2022-12-26T07:37:04.987Z,87.29
2022-12-26T07:39:37.761Z,86.86
2022-12-26T07:42:10.294Z,87.17
2022-12-26T07:44:42.965Z,87.29
2022-12-26T07:47:15.564Z,86.92
2022-12-26T07:49:48.065Z,87.38
2022-12-26T07:52:21.383Z,87.39
2022-12-26T07:54:53.916Z,86.98
2022-12-26T08:00:20.176Z,86.99
2022-12-26T08:02:53.438Z,86.85
2022-12-26T08:05:26.097Z,86.69
2022-12-26T08:07:58.599Z,86.61
2022-12-26T08:10:31.091Z,86.34
2022-12-26T08:13:03.655Z,86.69
2022-12-26T08:15:39.811Z,86.24
2022-12-26T08:18:12.241Z,86.15
2022-12-26T08:20:44.864Z,85.76
2022-12-26T08:23:17.759Z,85.72
2022-12-26T08:25:50.485Z,85.59
2022-12-26T08:28:23.187Z,84.95
2022-12-26T08:30:55.712Z,85.41
2022-12-26T08:33:28.247Z,85.09
2022-12-26T08:36:12.090Z,84.50
2022-12-26T08:38:44.651Z,83.74
2022-12-26T08:41:19.900Z,83.93
2022-12-26T08:44:25.669Z,83.67
2022-12-26T08:46:46.419Z,83.91
2022-12-26T08:49:19.047Z,83.29
2022-12-26T08:51:51.631Z,83.52
2022-12-26T08:54:24.157Z,83.19
2022-12-26T08:56:56.904Z,83.29
2022-12-26T08:59:29.363Z,82.74
2022-12-26T09:02:02.164Z,82.22
2022-12-26T09:04:35.007Z,81.82
2022-12-26T09:07:09.165Z,81.57
2022-12-26T09:09:41.939Z,81.10
2022-12-26T09:12:14.484Z,80.77
2022-12-26T09:14:50.230Z,80.71
2022-12-26T09:17:22.954Z,79.87
2022-12-26T09:19:55.553Z,79.90
2022-12-26T09:22:46.836Z,79.58
2022-12-26T09:25:23.655Z,79.68
2022-12-26T09:27:59.309Z,79.27
2022-12-26T09:30:32.248Z,78.80
2022-12-26T09:33:07.783Z,78.83
2022-12-26T09:35:41.846Z,78.73
2022-12-26T09:38:14.338Z,78.81
2022-12-26T09:41:16.713Z,78.72
2022-12-26T09:44:17.077Z,78.52
2022-12-26T09:47:29.852Z,79.29
2022-12-26T09:50:11.450Z,79.40
2022-12-26T09:52:54.477Z,78.89
2022-12-26T09:55:54.277Z,79.28
2022-12-26T09:58:44.419Z,78.86
2022-12-26T10:01:30.302Z,79.18
2022-12-26T10:04:15.888Z,79.21
2022-12-26T10:07:05.227Z,79.44
2022-12-26T10:10:22.762Z,79.57
2022-12-26T10:13:25.406Z,79.73
2022-12-26T10:16:07.206Z,79.36
2022-12-26T10:19:32.464Z,78.26
2022-12-26T10:22:28.463Z,78.17
2022-12-26T10:25:05.591Z,78.33
2022-12-26T10:27:42.017Z,78.71
2022-12-26T10:30:24.286Z,77.82
2022-12-26T10:33:11.552Z,77.82
2022-12-26T10:35:46.831Z,78.05
2022-12-26T10:38:45.550Z,78.68
2022-12-26T10:41:35.298Z,81.13
2022-12-26T10:44:12.850Z,82.80
2022-12-26T10:47:03.135Z,83.93
2022-12-26T10:49:36.239Z,84.89
2022-12-26T10:52:12.228Z,85.25
2022-12-26T10:55:27.283Z,85.53
2022-12-26T10:57:52.427Z,85.55
2022-12-26T11:00:28.442Z,85.25
2022-12-26T11:03:20.490Z,85.87
2022-12-26T11:06:12.110Z,85.73
2022-12-26T11:08:50.292Z,85.85
2022-12-26T11:11:27.044Z,85.28
2022-12-26T11:14:03.553Z,86.24
2022-12-26T11:16:40.481Z,83.06
2022-12-26T11:19:38.458Z,83.94
2022-12-26T11:22:29.043Z,82.66
2022-12-26T11:25:13.678Z,82.02
2022-12-26T11:27:59.180Z,82.29
2022-12-26T11:30:38.562Z,82.24
2022-12-26T11:33:29.821Z,82.56
2022-12-26T11:36:08.372Z,82.13
2022-12-26T11:39:02.217Z,81.89
2022-12-26T11:41:41.585Z,81.85
2022-12-26T11:44:16.788Z,82.04
2022-12-26T11:47:10.383Z,81.86
2022-12-26T11:50:08.293Z,81.75
2022-12-26T11:52:58.045Z,82.36
2022-12-26T11:55:39.239Z,81.69
2022-12-26T11:58:21.436Z,80.38
2022-12-26T12:00:59.995Z,79.92
2022-12-26T12:03:49.944Z,79.70
2022-12-26T12:06:43.983Z,79.19
2022-12-26T12:09:50.958Z,78.38
2022-12-26T12:13:01.742Z,77.91
2022-12-26T12:16:06.943Z,77.59
2022-12-26T12:19:21.429Z,77.22
2022-12-26T12:22:23.367Z,76.86
2022-12-26T12:25:01.691Z,76.63
2022-12-26T12:27:52.850Z,76.67
2022-12-26T12:30:57.742Z,77.02
2022-12-26T12:33:45.513Z,77.52
2022-12-26T12:36:51.069Z,76.56
2022-12-26T12:40:21.809Z,76.71
2022-12-26T12:43:22.294Z,76.34
2022-12-26T12:46:27.019Z,76.37
2022-12-26T12:49:40.262Z,77.18
2022-12-26T12:53:09.317Z,76.74
2022-12-26T12:56:26.936Z,76.46
2022-12-26T12:59:34.287Z,76.59
2022-12-26T13:02:23.420Z,74.97
2022-12-26T13:05:13.727Z,73.80
2022-12-26T13:07:57.421Z,74.00
2022-12-26T13:10:41.252Z,74.15
2022-12-26T13:13:35.470Z,73.54
2022-12-26T13:16:19.866Z,72.60
2022-12-26T13:19:12.139Z,72.73
2022-12-26T13:21:50.201Z,73.02
2022-12-26T13:24:36.320Z,73.36
2022-12-26T13:27:22.689Z,72.28
2022-12-26T13:29:55.269Z,72.36
2022-12-26T13:32:31.937Z,72.79
2022-12-26T13:35:05.349Z,73.01
2022-12-26T13:37:37.789Z,72.23
2022-12-26T13:40:13.535Z,72.93
2022-12-26T13:43:37.977Z,73.63
2022-12-26T13:46:37.260Z,73.31
2022-12-26T13:49:39.871Z,73.71
2022-12-26T13:52:12.292Z,73.86
2022-12-26T13:54:47.988Z,72.52
2022-12-26T13:57:45.007Z,72.83
2022-12-26T14:00:25.017Z,72.68
2022-12-26T14:03:54.873Z,72.26
2022-12-26T14:07:01.637Z,72.25
2022-12-26T14:09:51.611Z,72.24
2022-12-26T14:12:42.227Z,72.47
2022-12-26T14:15:47.814Z,72.75
2022-12-26T14:18:51.215Z,72.95
2022-12-26T14:21:52.096Z,72.20
2022-12-26T14:25:13.704Z,72.58
2022-12-26T14:28:21.615Z,72.62
2022-12-26T14:31:14.751Z,72.26
2022-12-26T14:34:44.711Z,70.16
2022-12-26T14:37:52.874Z,68.67
2022-12-26T14:40:36.188Z,67.75
2022-12-26T14:43:17.638Z,67.82
2022-12-26T14:45:52.834Z,68.72
2022-12-26T14:48:28.469Z,68.26
2022-12-26T14:51:04.024Z,68.69
2022-12-26T14:53:36.789Z,69.55
2022-12-26T14:56:13.921Z,69.54
2022-12-26T14:58:49.336Z,69.73
2022-12-26T15:01:21.808Z,70.36
2022-12-26T15:04:20.630Z,70.24
2022-12-26T15:07:50.939Z,70.97
2022-12-26T15:10:53.268Z,71.51
2022-12-26T15:13:31.775Z,71.82
2022-12-26T15:16:47.257Z,71.72
2022-12-26T15:20:02.025Z,72.12
2022-12-26T15:22:52.204Z,72.14
2022-12-26T15:26:06.895Z,71.71
2022-12-26T15:29:03.892Z,72.05
2022-12-26T15:31:51.003Z,72.16
2022-12-26T15:34:52.007Z,72.03
2022-12-26T15:37:48.783Z,71.57
2022-12-26T15:40:42.911Z,72.46
2022-12-26T15:43:51.814Z,72.73
2022-12-26T15:46:39.591Z,72.54
2022-12-26T15:49:41.828Z,72.67
2022-12-26T15:52:43.285Z,72.60
2022-12-26T15:55:40.698Z,72.64
2022-12-26T15:58:38.203Z,72.65
2022-12-26T16:01:11.867Z,72.27
2022-12-26T16:03:56.611Z,72.54
2022-12-26T16:07:01.551Z,71.84
2022-12-26T16:09:54.797Z,72.03
2022-12-26T16:12:35.869Z,72.08
2022-12-26T16:15:11.520Z,72.16
2022-12-26T16:17:44.685Z,72.61
2022-12-26T16:20:43.191Z,72.77
2022-12-26T16:23:23.792Z,74.82
2022-12-26T16:26:00.416Z,74.95
2022-12-26T16:28:43.355Z,75.89
2022-12-26T16:31:26.479Z,76.13
2022-12-26T16:34:00.843Z,76.14
2022-12-26T16:36:36.469Z,77.19
2022-12-26T16:39:11.677Z,76.86
2022-12-26T16:42:07.421Z,76.60
2022-12-26T16:44:44.308Z,76.68
2022-12-26T16:47:17.383Z,76.91
2022-12-26T16:49:52.096Z,76.75
2022-12-26T16:52:45.625Z,76.97
2022-12-26T16:55:26.542Z,77.33
2022-12-26T16:58:03.722Z,77.14
2022-12-26T17:00:36.414Z,77.20
2022-12-26T17:03:25.712Z,77.38
2022-12-26T17:05:58.449Z,77.82
2022-12-26T17:08:31.349Z,77.96
2022-12-26T17:11:03.900Z,77.83
2022-12-26T17:13:37.219Z,77.67
2022-12-26T17:16:10.889Z,78.00
2022-12-26T17:19:12.033Z,77.83
2022-12-26T17:22:19.509Z,78.18
2022-12-26T17:24:52.472Z,78.61
2022-12-26T17:27:26.821Z,79.22
2022-12-26T17:30:27.117Z,78.71
2022-12-26T17:33:08.786Z,78.36
2022-12-26T17:36:38.325Z,78.67
2022-12-26T17:38:38.284Z,78.44
2022-12-26T17:41:16.318Z,78.61
2022-12-26T17:43:50.250Z,78.86
2022-12-26T17:46:22.821Z,78.92
2022-12-26T17:48:55.441Z,78.79
2022-12-26T17:51:30.368Z,79.07
2022-12-26T17:54:02.994Z,78.79
2022-12-26T17:56:35.564Z,79.06
2022-12-26T17:59:14.344Z,79.02
2022-12-26T18:01:47.053Z,78.98
2022-12-26T18:04:19.716Z,78.79
2022-12-26T18:06:52.371Z,78.97
2022-12-26T18:09:28.095Z,79.43
2022-12-26T18:12:00.674Z,79.13
2022-12-26T18:14:33.350Z,79.52
2022-12-26T18:17:06.591Z,79.07
2022-12-26T18:19:39.421Z,79.55
2022-12-26T18:22:18.176Z,78.97
2022-12-26T18:24:50.748Z,79.10
2022-12-26T18:27:31.183Z,78.90
2022-12-26T18:30:04.708Z,79.29
2022-12-26T18:32:37.225Z,78.75
2022-12-26T18:35:10.151Z,78.93
2022-12-26T18:37:48.123Z,79.05
2022-12-26T18:40:40.762Z,78.87
2022-12-26T18:43:13.846Z,79.13
2022-12-26T18:45:46.486Z,78.82
2022-12-26T18:48:20.206Z,79.01
2022-12-26T18:50:52.787Z,78.92
2022-12-26T18:53:25.291Z,79.15
2022-12-26T18:55:57.781Z,78.60
2022-12-26T18:58:30.292Z,78.96
2022-12-26T19:01:04.265Z,79.25
2022-12-26T19:03:36.898Z,78.53
2022-12-26T19:06:19.382Z,79.16
2022-12-26T19:08:51.944Z,78.75
2022-12-26T19:11:24.854Z,79.14
2022-12-26T19:13:57.510Z,78.87
2022-12-26T19:16:30.045Z,78.61
2022-12-26T19:19:02.942Z,78.17
2022-12-26T19:21:35.427Z,78.10
2022-12-26T19:24:09.776Z,78.36
2022-12-26T19:26:42.564Z,78.13
2022-12-26T19:29:15.670Z,78.55
2022-12-26T19:31:48.366Z,77.69
2022-12-26T19:34:20.984Z,77.57
2022-12-26T19:36:53.464Z,76.90
2022-12-26T19:39:26.540Z,76.12
2022-12-26T19:41:59.355Z,76.06
2022-12-26T19:44:32.313Z,76.00
2022-12-26T19:47:12.232Z,75.93
2022-12-26T19:49:46.183Z,75.79
2022-12-26T19:52:18.728Z,76.17
2022-12-26T19:54:51.273Z,76.11
2022-12-26T19:57:23.836Z,76.61
2022-12-26T19:59:56.358Z,76.29
2022-12-26T20:02:29.056Z,76.37
2022-12-26T20:05:01.716Z,76.54
2022-12-26T20:07:34.430Z,76.91
2022-12-26T20:10:07.258Z,76.01
2022-12-26T20:12:39.824Z,76.12
2022-12-26T20:15:12.305Z,75.73
2022-12-26T20:17:44.893Z,76.82
2022-12-26T20:20:17.708Z,75.92
2022-12-26T20:22:53.130Z,76.42
2022-12-26T20:25:26.072Z,76.18
2022-12-26T20:27:58.961Z,76.53
2022-12-26T20:30:34.684Z,76.67
2022-12-26T20:33:07.481Z,76.59
2022-12-26T20:35:40.023Z,77.13
2022-12-26T20:38:12.675Z,77.34
2022-12-26T20:40:49.907Z,76.72
2022-12-26T20:43:23.101Z,77.47
2022-12-26T20:45:59.758Z,77.36
2022-12-26T20:48:36.889Z,77.65
2022-12-26T20:51:14.607Z,77.95
2022-12-26T20:53:47.428Z,77.35
2022-12-26T20:56:20.420Z,77.01
2022-12-26T20:58:52.984Z,77.60
2022-12-26T21:01:26.416Z,78.18
2022-12-26T21:04:00.049Z,77.48
2022-12-26T21:06:36.522Z,77.92
2022-12-26T21:09:08.997Z,77.55
2022-12-26T21:11:42.635Z,77.89
2022-12-26T21:14:20.612Z,78.01
2022-12-26T21:16:57.546Z,78.62
2022-12-26T21:19:30.564Z,78.77
2022-12-26T21:22:03.070Z,79.09
2022-12-26T21:24:35.691Z,79.03
2022-12-26T21:27:08.247Z,78.96
2022-12-26T21:29:40.972Z,80.13
2022-12-26T21:32:13.603Z,80.04
2022-12-26T21:34:46.587Z,79.64
2022-12-26T21:37:37.837Z,80.04
2022-12-26T21:40:11.152Z,79.98
2022-12-26T21:42:43.682Z,80.05
2022-12-26T21:45:16.299Z,80.98
2022-12-26T21:47:48.819Z,80.46
2022-12-26T21:50:21.355Z,80.65
2022-12-26T21:52:55.804Z,81.20
2022-12-26T21:55:30.025Z,80.95
2022-12-26T21:58:04.807Z,80.57
2022-12-26T22:00:37.347Z,80.76
2022-12-26T22:03:28.856Z,81.31
2022-12-26T22:06:01.351Z,81.21
2022-12-26T22:08:33.858Z,81.63
2022-12-26T22:11:36.181Z,80.96
2022-12-26T22:14:08.742Z,81.15
2022-12-26T22:16:41.396Z,81.14
2022-12-26T22:19:13.912Z,80.73
2022-12-26T22:21:46.572Z,81.80
2022-12-26T22:24:21.337Z,81.65
2022-12-26T22:26:53.881Z,81.71
2022-12-26T22:29:26.395Z,81.44
2022-12-26T22:31:58.996Z,82.21
2022-12-26T22:34:31.534Z,82.66
2022-12-26T22:37:04.030Z,82.28
2022-12-26T22:39:36.511Z,82.08
2022-12-26T22:42:09.117Z,83.03
2022-12-26T22:44:41.651Z,82.66
2022-12-26T22:47:14.263Z,82.69
2022-12-26T22:49:46.767Z,82.42
2022-12-26T22:52:19.328Z,82.41
2022-12-26T22:54:52.140Z,82.79
2022-12-26T22:57:24.833Z,83.05
2022-12-26T23:00:08.435Z,83.02
2022-12-26T23:02:42.062Z,82.66
2022-12-26T23:05:15.402Z,82.29
2022-12-26T23:07:48.205Z,83.02
2022-12-26T23:10:23.252Z,83.04
2022-12-26T23:12:57.157Z,83.83
2022-12-26T23:15:30.032Z,82.73
2022-12-26T23:18:58.216Z,83.67
2022-12-26T23:21:44.944Z,83.19
2022-12-26T23:24:27.323Z,83.52
2022-12-26T23:27:24.166Z,83.57
2022-12-26T23:30:15.638Z,82.98
2022-12-26T23:32:53.188Z,83.54
2022-12-26T23:35:26.773Z,83.14
2022-12-26T23:37:59.309Z,83.73
2022-12-26T23:40:32.243Z,83.72
2022-12-26T23:43:04.929Z,83.23
2022-12-26T23:45:43.638Z,83.79
2022-12-26T23:48:16.194Z,83.06
2022-12-26T23:50:49.594Z,83.56
2022-12-26T23:53:22.176Z,83.67
2022-12-26T23:55:54.743Z,83.50
2022-12-26T23:58:27.889Z,83.38
